createdAt,value
2016-11-18T00:00:15.352Z,10.64
2016-11-18T00:01:15.372Z,10.68
2016-11-18T00:02:15.396Z,10.68
2016-11-18T00:04:15.440Z,10.68
2016-11-18T00:05:15.463Z,10.68
2016-11-18T00:06:15.485Z,10.74
2016-11-18T00:07:15.503Z,10.76
2016-11-18T00:08:15.519Z,10.73
2016-11-18T00:09:15.543Z,10.68
2016-11-18T00:10:15.570Z,10.67
2016-11-18T00:11:15.584Z,10.68
2016-11-18T00:13:15.630Z,10.79
2016-11-18T00:14:15.650Z,10.74
2016-11-18T00:15:15.670Z,10.76
2016-11-18T00:16:15.686Z,10.86
2016-11-18T00:17:15.716Z,10.84
2016-11-18T00:19:30.669Z,10.73
2016-11-18T00:20:15.775Z,10.86
2016-11-18T00:21:15.849Z,10.84
2016-11-18T00:22:15.818Z,10.81
2016-11-18T00:23:15.837Z,10.84
2016-11-18T00:24:15.862Z,10.79
2016-11-18T00:25:15.881Z,10.86
2016-11-18T00:26:15.907Z,10.86
2016-11-18T00:27:15.923Z,10.79
2016-11-18T00:28:15.946Z,10.86
2016-11-18T00:29:15.968Z,10.88
2016-11-18T00:30:15.991Z,10.86
2016-11-18T00:31:16.009Z,10.86
2016-11-18T00:32:16.033Z,10.85
2016-11-18T00:33:16.052Z,10.91
2016-11-18T00:34:16.082Z,10.86
2016-11-18T00:35:31.007Z,10.89
2016-11-18T00:36:16.118Z,10.86
2016-11-18T00:37:16.139Z,10.82
2016-11-18T00:38:16.159Z,10.81
2016-11-18T00:39:16.180Z,10.97
2016-11-18T00:40:16.204Z,10.84
2016-11-18T00:41:16.220Z,10.97
2016-11-18T00:42:16.247Z,10.99
2016-11-18T00:43:16.276Z,10.88
2016-11-18T00:44:31.200Z,10.96
2016-11-18T00:45:16.305Z,10.89
2016-11-18T00:47:16.355Z,10.97
2016-11-18T00:48:16.383Z,10.88
2016-11-18T00:49:16.394Z,10.89
2016-11-18T00:50:31.330Z,10.94
2016-11-18T00:51:16.437Z,10.97
2016-11-18T00:52:16.458Z,11.02
2016-11-18T00:53:31.397Z,10.94
2016-11-18T00:54:16.502Z,10.99
2016-11-18T00:55:16.524Z,10.99
2016-11-18T00:56:16.545Z,10.94
2016-11-18T00:57:16.568Z,10.97
2016-11-18T00:58:31.500Z,11
2016-11-18T00:59:16.604Z,11.02
2016-11-18T01:00:16.632Z,10.97
2016-11-18T01:01:16.648Z,10.91
2016-11-18T01:02:16.675Z,11.02
2016-11-18T01:03:16.702Z,10.99
2016-11-18T01:04:16.712Z,10.94
2016-11-18T01:05:16.732Z,11.1
2016-11-18T01:06:16.758Z,11.07
2016-11-18T01:07:16.780Z,10.97
2016-11-18T01:08:16.802Z,11
2016-11-18T01:09:16.823Z,10.92
2016-11-18T01:10:16.839Z,10.92
2016-11-18T01:11:16.864Z,10.89
2016-11-18T01:12:16.913Z,10.99
2016-11-18T01:13:16.907Z,10.96
2016-11-18T01:14:16.925Z,11.04
2016-11-18T01:15:16.943Z,11.03
2016-11-18T01:16:16.971Z,10.99
2016-11-18T01:17:16.991Z,11.03
2016-11-18T01:18:17.012Z,11.1
2016-11-18T01:19:17.035Z,11.02
2016-11-18T01:20:17.055Z,11.02
2016-11-18T01:21:17.075Z,11.07
2016-11-18T01:22:32.013Z,11
2016-11-18T01:23:17.123Z,11.07
2016-11-18T01:24:17.195Z,11.07
2016-11-18T01:25:17.162Z,11.11
2016-11-18T01:26:17.181Z,11.04
2016-11-18T01:27:17.210Z,11.14
2016-11-18T01:28:17.226Z,11.11
2016-11-18T01:29:17.254Z,11.14
2016-11-18T01:30:17.273Z,11.09
2016-11-18T01:31:17.294Z,11.06
2016-11-18T01:32:17.312Z,11.17
2016-11-18T01:34:17.355Z,11.11
2016-11-18T01:35:17.374Z,11.14
2016-11-18T01:36:17.393Z,11.09
2016-11-18T01:37:17.421Z,11.14
2016-11-18T01:38:32.356Z,11.11
2016-11-18T01:39:17.467Z,11.19
2016-11-18T01:40:17.484Z,11.17
2016-11-18T01:41:17.505Z,11.18
2016-11-18T01:42:17.532Z,11.19
2016-11-18T01:43:17.548Z,11.22
2016-11-18T01:44:17.575Z,11.18
2016-11-18T01:45:17.591Z,11.09
2016-11-18T01:46:17.614Z,11.07
2016-11-18T01:47:17.631Z,11.14
2016-11-18T01:48:17.660Z,11
2016-11-18T01:49:17.676Z,11.07
2016-11-18T01:50:17.704Z,10.92
2016-11-18T01:51:17.724Z,11.07
2016-11-18T01:52:17.762Z,11.07
2016-11-18T01:53:17.770Z,11.11
2016-11-18T01:54:32.731Z,11.17
2016-11-18T01:55:17.808Z,11.07
2016-11-18T01:56:17.826Z,11.06
2016-11-18T01:57:17.849Z,11.07
2016-11-18T01:58:17.874Z,10.96
2016-11-18T01:59:17.894Z,11.07
2016-11-18T02:00:17.913Z,11
2016-11-18T02:01:17.936Z,11.06
2016-11-18T02:02:17.958Z,11.07
2016-11-18T02:03:17.979Z,11.11
2016-11-18T02:04:18.007Z,11.04
2016-11-18T02:05:18.021Z,11.04
2016-11-18T02:06:18.044Z,11.02
2016-11-18T02:07:18.065Z,10.97
2016-11-18T02:09:18.105Z,11.02
2016-11-18T02:10:33.043Z,11.06
2016-11-18T02:11:18.153Z,11.06
2016-11-18T02:12:18.170Z,11.09
2016-11-18T02:13:18.240Z,11.07
2016-11-18T02:14:18.221Z,11.09
2016-11-18T02:15:18.237Z,11.06
2016-11-18T02:16:18.259Z,11.02
2016-11-18T02:17:33.193Z,10.96
2016-11-18T02:18:18.294Z,10.99
2016-11-18T02:19:18.320Z,11.06
2016-11-18T02:20:18.345Z,10.99
2016-11-18T02:21:18.366Z,11.04
2016-11-18T02:22:18.689Z,11.04
2016-11-18T02:23:18.408Z,11.03
2016-11-18T02:24:18.733Z,11.07
2016-11-18T02:25:33.366Z,11.02
2016-11-18T02:26:18.475Z,11.06
2016-11-18T02:27:18.499Z,11.1
2016-11-18T02:28:18.519Z,11.1
2016-11-18T02:29:18.538Z,11.17
2016-11-18T02:30:18.556Z,11.1
2016-11-18T02:31:18.586Z,11.14
2016-11-18T02:32:18.600Z,11.11
2016-11-18T02:33:18.623Z,11.1
2016-11-18T02:34:18.648Z,11.09
2016-11-18T02:35:18.694Z,11.11
2016-11-18T02:36:18.689Z,11.19
2016-11-18T02:37:18.708Z,11.1
2016-11-18T02:38:18.728Z,11.1
2016-11-18T02:39:18.757Z,11.07
2016-11-18T02:41:18.795Z,11.1
2016-11-18T02:42:18.818Z,11.19
2016-11-18T02:44:18.860Z,11.14
2016-11-18T02:45:18.887Z,11.17
2016-11-18T02:46:18.903Z,11.24
2016-11-18T02:47:18.924Z,11.18
2016-11-18T02:48:18.943Z,11.04
2016-11-18T02:49:18.969Z,11.1
2016-11-18T02:50:18.992Z,11.06
2016-11-18T02:51:19.007Z,11.1
2016-11-18T02:52:19.031Z,11.1
2016-11-18T02:53:19.052Z,11.21
2016-11-18T02:54:19.080Z,11.22
2016-11-18T02:55:19.094Z,11.27
2016-11-18T02:56:19.149Z,11.28
2016-11-18T02:58:19.159Z,11.37
2016-11-18T02:59:19.182Z,11.25
2016-11-18T03:00:19.203Z,11.22
2016-11-18T03:01:19.228Z,11.27
2016-11-18T03:02:19.242Z,11.25
2016-11-18T03:03:19.269Z,11.29
2016-11-18T03:04:19.289Z,11.32
2016-11-18T03:05:19.309Z,11.35
2016-11-18T03:06:19.329Z,11.36
2016-11-18T03:07:19.363Z,11.22
2016-11-18T03:08:19.380Z,11.21
2016-11-18T03:09:19.397Z,11.29
2016-11-18T03:10:19.418Z,11.28
2016-11-18T03:11:19.442Z,11.29
2016-11-18T03:12:19.460Z,11.35
2016-11-18T03:13:34.402Z,11.36
2016-11-18T03:14:19.506Z,11.28
2016-11-18T03:15:19.525Z,11.35
2016-11-18T03:16:19.550Z,11.28
2016-11-18T03:17:19.568Z,11.32
2016-11-18T03:18:19.593Z,11.37
2016-11-18T03:19:19.612Z,11.35
2016-11-18T03:20:19.634Z,11.33
2016-11-18T03:21:34.570Z,11.28
2016-11-18T03:22:19.672Z,11.25
2016-11-18T03:23:19.695Z,11.33
2016-11-18T03:24:19.717Z,11.32
2016-11-18T03:26:19.795Z,11.29
2016-11-18T03:27:19.818Z,11.4
2016-11-18T03:28:19.807Z,11.32
2016-11-18T03:29:34.741Z,11.33
2016-11-18T03:30:19.887Z,11.28
2016-11-18T03:31:19.871Z,11.47
2016-11-18T03:32:19.893Z,11.32
2016-11-18T03:33:19.908Z,11.37
2016-11-18T03:34:19.932Z,11.35
2016-11-18T03:35:19.961Z,11.33
2016-11-18T03:36:19.977Z,11.39
2016-11-18T03:37:19.997Z,11.29
2016-11-18T03:38:20.030Z,11.37
2016-11-18T03:39:20.042Z,11.22
2016-11-18T03:40:20.059Z,11.29
2016-11-18T03:41:20.084Z,11.29
2016-11-18T03:42:20.107Z,11.33
2016-11-18T03:44:20.151Z,11.37
2016-11-18T03:45:35.087Z,11.42
2016-11-18T03:46:20.192Z,11.47
2016-11-18T03:47:20.218Z,11.44
2016-11-18T03:48:20.232Z,11.43
2016-11-18T03:49:20.255Z,11.35
2016-11-18T03:50:20.274Z,11.35
2016-11-18T03:51:35.216Z,11.37
2016-11-18T03:52:20.319Z,11.37
2016-11-18T03:53:20.342Z,11.43
2016-11-18T03:54:20.367Z,11.44
2016-11-18T03:55:35.298Z,11.47
2016-11-18T03:56:20.409Z,11.43
2016-11-18T03:57:20.428Z,11.46
2016-11-18T03:58:20.451Z,11.43
2016-11-18T03:59:20.475Z,11.46
2016-11-18T04:01:20.513Z,11.52
2016-11-18T04:02:20.540Z,11.55
2016-11-18T04:03:20.560Z,11.54
2016-11-18T04:05:35.520Z,11.49
2016-11-18T04:06:35.540Z,11.54
2016-11-18T04:07:20.647Z,11.6
2016-11-18T04:08:20.671Z,11.44
2016-11-18T04:09:20.683Z,11.54
2016-11-18T04:10:20.741Z,11.57
2016-11-18T04:11:20.734Z,11.46
2016-11-18T04:13:20.774Z,11.52
2016-11-18T04:14:20.804Z,11.58
2016-11-18T04:15:20.826Z,11.58
2016-11-18T04:16:20.841Z,11.55
2016-11-18T04:17:20.860Z,11.49
2016-11-18T04:18:20.890Z,11.51
2016-11-18T04:19:21.210Z,11.64
2016-11-18T04:20:20.927Z,11.57
2016-11-18T04:21:20.950Z,11.55
2016-11-18T04:22:20.972Z,11.58
2016-11-18T04:23:20.990Z,11.61
2016-11-18T04:24:21.017Z,11.61
2016-11-18T04:25:35.948Z,11.67
2016-11-18T04:26:21.056Z,11.64
2016-11-18T04:27:21.076Z,11.69
2016-11-18T04:28:21.097Z,11.64
2016-11-18T04:32:36.104Z,11.67
2016-11-18T04:33:21.212Z,11.61
2016-11-18T04:34:21.232Z,11.67
2016-11-18T04:35:21.260Z,11.7
2016-11-18T04:36:21.273Z,11.65
2016-11-18T04:37:21.301Z,11.64
2016-11-18T04:38:21.315Z,11.73
2016-11-18T04:39:36.255Z,11.72
2016-11-18T04:40:21.364Z,11.73
2016-11-18T04:41:21.384Z,11.72
2016-11-18T04:42:21.416Z,11.8
2016-11-18T04:43:21.427Z,11.86
2016-11-18T04:44:21.448Z,11.78
2016-11-18T04:45:21.470Z,11.79
2016-11-18T04:46:21.531Z,11.88
2016-11-18T04:47:21.509Z,11.79
2016-11-18T04:48:36.452Z,11.73
2016-11-18T04:50:21.574Z,11.82
2016-11-18T04:51:21.603Z,11.73
2016-11-18T04:52:21.622Z,11.82
2016-11-18T04:53:21.652Z,11.82
2016-11-18T04:54:21.670Z,11.8
2016-11-18T04:55:21.694Z,11.83
2016-11-18T04:56:36.629Z,11.83
2016-11-18T04:57:21.731Z,11.88
2016-11-18T04:58:21.768Z,11.85
2016-11-18T04:59:21.783Z,11.95
2016-11-18T05:00:21.797Z,12.04
2016-11-18T05:01:21.821Z,11.94
2016-11-18T05:02:21.840Z,12.02
2016-11-18T05:03:21.862Z,11.95
2016-11-18T05:04:36.804Z,11.95
2016-11-18T05:05:21.938Z,11.96
2016-11-18T05:06:21.932Z,11.96
2016-11-18T05:07:21.949Z,11.95
2016-11-18T05:08:21.974Z,11.98
2016-11-18T05:09:22.000Z,11.98
2016-11-18T05:10:36.936Z,12.04
2016-11-18T05:11:22.040Z,12.04
2016-11-18T05:12:22.061Z,12.05
2016-11-18T05:13:22.081Z,12.07
2016-11-18T05:14:22.106Z,12.05
2016-11-18T05:15:22.128Z,12.02
2016-11-18T05:16:22.148Z,12.1
2016-11-18T05:17:22.170Z,12.13
2016-11-18T05:18:22.494Z,12.12
2016-11-18T05:19:22.363Z,12.16
2016-11-18T05:20:37.154Z,12.14
2016-11-18T05:21:22.260Z,12.13
2016-11-18T05:22:22.283Z,12.07
2016-11-18T05:23:22.304Z,12.02
2016-11-18T05:24:22.327Z,12.04
2016-11-18T05:25:22.342Z,12.19
2016-11-18T05:26:22.365Z,12.14
2016-11-18T05:27:22.390Z,12.14
2016-11-18T05:28:22.423Z,12.04
2016-11-18T05:29:22.432Z,12.12
2016-11-18T05:30:22.458Z,12.01
2016-11-18T05:31:22.474Z,12.05
2016-11-18T05:32:22.497Z,11.96
2016-11-18T05:33:22.522Z,12.02
2016-11-18T05:34:22.543Z,11.96
2016-11-18T05:35:37.484Z,12.01
2016-11-18T05:36:22.590Z,11.94
2016-11-18T05:37:22.608Z,11.91
2016-11-18T05:39:22.654Z,11.8
2016-11-18T05:40:22.682Z,11.78
2016-11-18T05:41:22.724Z,11.9
2016-11-18T05:42:37.635Z,11.83
2016-11-18T05:43:23.042Z,11.78
2016-11-18T05:44:22.767Z,11.91
2016-11-18T05:45:22.785Z,11.82
2016-11-18T05:46:22.807Z,11.83
2016-11-18T05:47:22.836Z,11.78
2016-11-18T05:48:22.850Z,11.9
2016-11-18T05:49:22.868Z,11.78
2016-11-18T05:50:22.900Z,11.86
2016-11-18T05:53:22.961Z,11.9
2016-11-18T05:54:22.980Z,12.02
2016-11-18T05:55:23.006Z,12.01
2016-11-18T05:56:23.028Z,12.1
2016-11-18T05:57:23.052Z,12.01
2016-11-18T05:58:23.067Z,12.04
2016-11-18T05:59:42.296Z,11.96
2016-11-18T06:00:23.103Z,11.94
2016-11-18T06:01:23.130Z,11.9
2016-11-18T06:02:23.141Z,11.79
2016-11-18T06:03:23.167Z,11.78
2016-11-18T06:05:23.214Z,11.88
2016-11-18T06:06:23.236Z,11.94
2016-11-18T06:07:38.177Z,11.95
2016-11-18T06:08:23.580Z,11.91
2016-11-18T06:09:23.300Z,11.98
2016-11-18T06:10:23.325Z,11.96
2016-11-18T06:11:23.347Z,11.95
2016-11-18T06:12:23.368Z,11.78
2016-11-18T06:13:23.394Z,11.79
2016-11-18T06:14:38.333Z,11.79
2016-11-18T06:15:23.435Z,11.79
2016-11-18T06:16:23.467Z,11.83
2016-11-18T06:17:23.488Z,11.95
2016-11-18T06:18:23.507Z,11.98
2016-11-18T06:19:23.533Z,11.96
2016-11-18T06:20:23.554Z,12.04
2016-11-18T06:21:23.575Z,11.99
2016-11-18T06:22:23.594Z,12.01
2016-11-18T06:23:38.537Z,12.02
2016-11-18T06:24:23.651Z,11.99
2016-11-18T06:25:23.665Z,12.04
2016-11-18T06:26:23.689Z,11.98
2016-11-18T06:27:23.710Z,12.02
2016-11-18T06:28:23.729Z,11.99
2016-11-18T06:29:38.667Z,11.95
2016-11-18T06:30:23.771Z,11.94
2016-11-18T06:31:38.709Z,12.07
2016-11-18T06:32:23.818Z,12.04
2016-11-18T06:33:23.841Z,12.02
2016-11-18T06:34:23.859Z,12.02
2016-11-18T06:35:23.883Z,12.05
2016-11-18T06:36:23.906Z,12.17
2016-11-18T06:37:23.923Z,12.05
2016-11-18T06:38:23.959Z,11.99
2016-11-18T06:40:23.993Z,12.04
2016-11-18T06:41:24.017Z,12.07
2016-11-18T06:42:24.037Z,11.98
2016-11-18T06:43:24.061Z,11.96
2016-11-18T06:44:24.083Z,12.01
2016-11-18T06:45:39.019Z,12.01
2016-11-18T06:46:24.125Z,12.04
2016-11-18T06:47:24.150Z,11.98
2016-11-18T06:48:24.171Z,12.01
2016-11-18T06:49:24.194Z,11.96
2016-11-18T06:50:24.213Z,11.91
2016-11-18T06:51:24.236Z,11.88
2016-11-18T06:52:24.256Z,11.88
2016-11-18T06:53:24.281Z,11.94
2016-11-18T06:54:24.307Z,11.85
2016-11-18T06:55:39.238Z,11.94
2016-11-18T06:56:24.348Z,11.96
2016-11-18T06:57:24.365Z,12.02
2016-11-18T06:58:24.398Z,11.98
2016-11-18T06:59:24.422Z,12.01
2016-11-18T07:00:24.435Z,11.99
2016-11-18T07:01:24.457Z,11.99
2016-11-18T07:02:24.482Z,12.02
2016-11-18T07:03:24.501Z,12.02
2016-11-18T07:04:24.528Z,12.14
2016-11-18T07:05:24.540Z,12.05
2016-11-18T07:06:24.563Z,12.17
2016-11-18T07:07:24.592Z,12.16
2016-11-18T07:09:24.632Z,11.99
2016-11-18T07:10:39.569Z,12.16
2016-11-18T07:11:24.675Z,12.12
2016-11-18T07:12:24.697Z,12.2
2016-11-18T07:14:39.661Z,12.12
2016-11-18T07:15:24.763Z,12.2
2016-11-18T07:16:24.791Z,12.14
2016-11-18T07:17:24.813Z,12.14
2016-11-18T07:18:39.746Z,12.14
2016-11-18T07:19:24.853Z,12.2
2016-11-18T07:20:24.872Z,12.24
2016-11-18T07:21:24.898Z,12.29
2016-11-18T07:22:24.917Z,12.27
2016-11-18T07:23:24.948Z,12.35
2016-11-18T07:24:24.968Z,12.23
2016-11-18T07:25:24.989Z,12.38
2016-11-18T07:26:25.008Z,12.27
2016-11-18T07:27:25.034Z,12.34
2016-11-18T07:28:25.054Z,12.35
2016-11-18T07:29:25.075Z,12.37
2016-11-18T07:31:25.170Z,12.45
2016-11-18T07:32:40.356Z,12.39
2016-11-18T07:33:25.167Z,12.41
2016-11-18T07:34:25.186Z,12.45
2016-11-18T07:35:25.206Z,12.49
2016-11-18T07:36:25.231Z,12.46
2016-11-18T07:37:25.248Z,12.47
2016-11-18T07:38:25.272Z,12.5
2016-11-18T07:39:25.294Z,12.54
2016-11-18T07:40:25.323Z,12.57
2016-11-18T07:43:25.384Z,12.59
2016-11-18T07:44:25.406Z,12.54
2016-11-18T07:45:25.432Z,12.52
2016-11-18T07:46:25.448Z,12.62
2016-11-18T07:47:25.472Z,12.56
2016-11-18T07:48:25.493Z,12.46
2016-11-18T07:49:25.516Z,12.47
2016-11-18T07:50:25.570Z,12.46
2016-11-18T07:51:40.476Z,12.47
2016-11-18T07:52:25.589Z,12.49
2016-11-18T07:53:25.608Z,12.52
2016-11-18T07:54:25.631Z,12.5
2016-11-18T07:55:25.659Z,12.59
2016-11-18T07:56:25.686Z,12.45
2016-11-18T07:57:25.694Z,12.5
2016-11-18T07:59:25.753Z,12.5
2016-11-18T08:00:25.765Z,12.46
2016-11-18T08:01:25.790Z,12.54
2016-11-18T08:02:25.812Z,12.6
2016-11-18T08:03:25.828Z,12.68
2016-11-18T08:04:40.771Z,12.59
2016-11-18T08:05:25.884Z,12.7
2016-11-18T08:06:25.901Z,12.67
2016-11-18T08:07:25.927Z,12.68
2016-11-18T08:08:25.945Z,12.67
2016-11-18T08:09:25.983Z,12.62
2016-11-18T08:10:26.297Z,12.57
2016-11-18T08:11:26.013Z,12.64
2016-11-18T08:13:26.071Z,12.9
2016-11-18T08:14:40.998Z,12.95
2016-11-18T08:15:26.110Z,13.05
2016-11-18T08:16:26.127Z,13.04
2016-11-18T08:17:26.151Z,13.15
2016-11-18T08:18:26.180Z,13.17
2016-11-18T08:19:26.192Z,13.33
2016-11-18T08:20:26.218Z,13.39
2016-11-18T08:21:26.241Z,13.32
2016-11-18T08:22:26.261Z,13.33
2016-11-18T08:23:26.288Z,13.22
2016-11-18T08:24:26.304Z,13.19
2016-11-18T08:25:26.331Z,13.15
2016-11-18T08:26:26.354Z,13.25
2016-11-18T08:27:26.381Z,13.17
2016-11-18T08:28:26.404Z,13.23
2016-11-18T08:29:26.423Z,13.19
2016-11-18T08:31:26.469Z,13.26
2016-11-18T08:32:26.496Z,13.26
2016-11-18T08:33:41.434Z,13.15
2016-11-18T08:34:26.537Z,13.2
2016-11-18T08:35:26.566Z,13.36
2016-11-18T08:36:26.582Z,13.3
2016-11-18T08:37:41.523Z,13.23
2016-11-18T08:38:26.634Z,13.3
2016-11-18T08:39:26.686Z,13.32
2016-11-18T08:40:41.588Z,13.33
2016-11-18T08:41:26.697Z,13.36
2016-11-18T08:42:26.721Z,13.39
2016-11-18T08:43:26.773Z,13.44
2016-11-18T08:44:26.764Z,13.44
2016-11-18T08:45:41.707Z,13.48
2016-11-18T08:46:26.813Z,13.49
2016-11-18T08:47:26.835Z,13.48
2016-11-18T08:48:26.861Z,13.57
2016-11-18T08:49:26.885Z,13.52
2016-11-18T08:50:26.905Z,13.51
2016-11-18T08:51:26.926Z,13.51
2016-11-18T08:52:26.947Z,13.62
2016-11-18T08:53:26.967Z,13.66
2016-11-18T08:54:41.909Z,13.62
2016-11-18T08:55:27.013Z,13.63
2016-11-18T08:56:27.040Z,13.64
2016-11-18T08:57:27.073Z,13.67
2016-11-18T08:58:27.090Z,13.69
2016-11-18T08:59:27.109Z,13.77
2016-11-18T09:00:27.132Z,13.88
2016-11-18T09:01:27.157Z,13.85
2016-11-18T09:02:27.181Z,13.89
2016-11-18T09:03:27.203Z,13.92
2016-11-18T09:04:27.226Z,13.88
2016-11-18T09:05:27.248Z,13.96
2016-11-18T09:06:42.187Z,13.95
2016-11-18T09:07:27.294Z,13.97
2016-11-18T09:08:27.313Z,13.96
2016-11-18T09:09:27.337Z,13.91
2016-11-18T09:10:27.368Z,13.88
2016-11-18T09:12:27.407Z,13.89
2016-11-18T09:13:27.430Z,13.89
2016-11-18T09:14:27.459Z,13.96
2016-11-18T09:15:27.478Z,14.06
2016-11-18T09:17:42.440Z,14.18
2016-11-18T09:18:27.545Z,14.2
2016-11-18T09:19:27.572Z,14.2
2016-11-18T09:20:27.814Z,14.22
2016-11-18T09:21:27.616Z,14.28
2016-11-18T09:22:27.639Z,14.33
2016-11-18T09:23:27.665Z,14.37
2016-11-18T09:24:27.686Z,14.42
2016-11-18T09:25:42.623Z,14.39
2016-11-18T09:26:27.735Z,14.39
2016-11-18T09:28:27.777Z,14.33
2016-11-18T09:29:27.803Z,14.18
2016-11-18T09:30:27.823Z,14.27
2016-11-18T09:31:27.846Z,14.22
2016-11-18T09:33:42.812Z,14.17
2016-11-18T09:34:27.916Z,14.25
2016-11-18T09:35:27.938Z,14.24
2016-11-18T09:36:27.967Z,14.18
2016-11-18T09:37:27.987Z,14.21
2016-11-18T09:38:28.012Z,14.32
2016-11-18T09:39:28.032Z,14.36
2016-11-18T09:40:28.056Z,14.47
2016-11-18T09:41:28.083Z,14.58
2016-11-18T09:42:28.105Z,14.62
2016-11-18T09:43:28.156Z,14.78
2016-11-18T09:44:28.149Z,14.91
2016-11-18T09:45:28.174Z,15.06
2016-11-18T09:46:28.194Z,15.16
2016-11-18T09:47:28.525Z,15.32
2016-11-18T09:48:28.245Z,15.34
2016-11-18T09:49:43.183Z,15.35
2016-11-18T09:50:28.296Z,15.31
2016-11-18T09:51:28.322Z,15.28
2016-11-18T09:52:28.338Z,15.25
2016-11-18T09:53:28.362Z,15.23
2016-11-18T09:54:28.687Z,15.2
2016-11-18T09:55:28.408Z,15.21
2016-11-18T09:56:28.449Z,15.11
2016-11-18T09:57:28.461Z,15.16
2016-11-18T09:58:43.395Z,15.11
2016-11-18T09:59:28.504Z,15.11
2016-11-18T10:00:43.440Z,15.07
2016-11-18T10:01:28.551Z,15.16
2016-11-18T10:02:28.576Z,15.09
2016-11-18T10:03:28.599Z,15.13
2016-11-18T10:04:28.623Z,15.11
2016-11-18T10:05:43.559Z,15.09
2016-11-18T10:06:28.674Z,15.17
2016-11-18T10:07:28.696Z,15.14
2016-11-18T10:08:28.718Z,15.2
2016-11-18T10:09:28.739Z,15.2
2016-11-18T10:10:28.762Z,15.13
2016-11-18T10:11:43.706Z,15.11
2016-11-18T10:12:43.727Z,15.11
2016-11-18T10:13:28.835Z,15.09
2016-11-18T10:14:28.860Z,15.01
2016-11-18T10:16:28.923Z,14.64
2016-11-18T10:17:28.928Z,13.96
2016-11-18T10:18:28.952Z,13.07
2016-11-18T10:19:28.974Z,12.46
2016-11-18T10:21:29.025Z,11.75
2016-11-18T10:22:29.050Z,11.58
2016-11-18T10:23:29.073Z,11.65
2016-11-18T10:24:29.101Z,11.54
2016-11-18T10:25:29.123Z,11.55
2016-11-18T10:26:29.135Z,11.37
2016-11-18T10:27:29.193Z,11.36
2016-11-18T10:28:29.184Z,11.32
2016-11-18T10:29:29.207Z,11.37
2016-11-18T10:30:29.228Z,11.28
2016-11-18T10:31:29.259Z,11.25
2016-11-18T10:32:29.283Z,11.17
2016-11-18T10:33:29.299Z,11.15
2016-11-18T10:34:29.327Z,10.94
2016-11-18T10:35:29.342Z,10.91
2016-11-18T10:36:29.368Z,10.92
2016-11-18T10:37:29.396Z,10.89
2016-11-18T10:38:29.417Z,10.88
2016-11-18T10:39:29.435Z,10.86
2016-11-18T10:40:29.768Z,10.81
2016-11-18T10:41:29.477Z,10.96
2016-11-18T10:42:44.419Z,10.88
2016-11-18T10:43:29.527Z,10.91
2016-11-18T10:44:44.465Z,10.85
2016-11-18T10:45:44.483Z,10.88
2016-11-18T10:46:29.591Z,10.76
2016-11-18T10:47:29.617Z,10.7
2016-11-18T10:48:29.639Z,10.67
2016-11-18T10:49:29.664Z,10.61
2016-11-18T10:50:29.687Z,10.59
2016-11-18T10:52:44.640Z,10.59
2016-11-18T10:53:29.744Z,10.47
2016-11-18T10:54:29.772Z,10.52
2016-11-18T10:55:29.795Z,10.47
2016-11-18T10:56:44.734Z,10.44
2016-11-18T10:57:29.839Z,10.47
2016-11-18T10:58:29.860Z,10.51
2016-11-18T10:59:44.796Z,10.56
2016-11-18T11:00:29.907Z,10.59
2016-11-18T11:01:29.927Z,10.6
2016-11-18T11:02:29.951Z,10.61
2016-11-18T11:03:29.971Z,10.61
2016-11-18T11:04:29.990Z,10.73
2016-11-18T11:05:30.019Z,10.74
2016-11-18T11:07:30.066Z,10.82
2016-11-18T11:09:30.105Z,10.92
2016-11-18T11:10:30.123Z,10.81
2016-11-18T11:11:30.147Z,10.96
2016-11-18T11:12:30.170Z,10.84
2016-11-18T11:13:30.188Z,10.85
2016-11-18T11:14:30.210Z,10.91
2016-11-18T11:15:30.241Z,10.89
2016-11-18T11:16:30.258Z,10.84
2016-11-18T11:17:30.283Z,10.84
2016-11-18T11:18:30.300Z,10.88
2016-11-18T11:19:30.324Z,10.88
2016-11-18T11:20:30.349Z,10.82
2016-11-18T11:21:30.379Z,10.85
2016-11-18T11:22:30.392Z,10.81
2016-11-18T11:23:30.411Z,10.79
2016-11-18T11:24:45.350Z,10.82
2016-11-18T11:25:30.459Z,10.73
2016-11-18T11:26:30.476Z,10.76
2016-11-18T11:27:30.502Z,10.68
2016-11-18T11:28:30.519Z,10.71
2016-11-18T11:29:30.546Z,10.64
2016-11-18T11:30:30.564Z,10.66
2016-11-18T11:31:30.589Z,10.67
2016-11-18T11:32:30.614Z,10.74
2016-11-18T11:33:30.634Z,10.7
2016-11-18T11:34:30.660Z,10.6
2016-11-18T11:36:30.695Z,10.6
2016-11-18T11:39:30.762Z,10.61
2016-11-18T11:40:45.712Z,10.71
2016-11-18T11:41:30.810Z,10.68
2016-11-18T11:42:30.830Z,10.64
2016-11-18T11:43:30.854Z,10.61
2016-11-18T11:44:30.876Z,10.63
2016-11-18T11:45:30.899Z,10.47
2016-11-18T11:46:30.915Z,10.6
2016-11-18T11:47:30.940Z,10.51
2016-11-18T11:48:30.969Z,10.51
2016-11-18T11:49:30.989Z,10.41
2016-11-18T11:50:31.008Z,10.47
2016-11-18T11:51:31.025Z,10.44
2016-11-18T11:54:31.090Z,10.52
2016-11-18T11:55:46.028Z,10.47
2016-11-18T11:56:31.133Z,10.52
2016-11-18T11:57:31.158Z,10.44
2016-11-18T11:58:31.177Z,10.47
2016-11-18T11:59:31.201Z,10.44
2016-11-18T12:00:31.223Z,10.45
2016-11-18T12:01:31.244Z,10.47
2016-11-18T12:02:31.264Z,10.51
2016-11-18T12:03:31.291Z,10.52
2016-11-18T12:04:31.311Z,10.42
2016-11-18T12:05:31.333Z,10.51
2016-11-18T12:06:31.356Z,10.48
2016-11-18T12:07:31.379Z,10.48
2016-11-18T12:09:31.419Z,10.51
2016-11-18T12:11:31.464Z,10.48
2016-11-18T12:12:31.484Z,10.34
2016-11-18T12:13:31.509Z,10.34
2016-11-18T12:14:31.525Z,10.32
2016-11-18T12:15:31.545Z,10.36
2016-11-18T12:16:31.571Z,10.38
2016-11-18T12:17:46.508Z,10.32
2016-11-18T12:18:31.616Z,10.25
2016-11-18T12:19:31.631Z,10.27
2016-11-18T12:20:31.656Z,10.17
2016-11-18T12:21:46.590Z,10.18
2016-11-18T12:22:31.699Z,10.17
2016-11-18T12:23:31.719Z,10.3
2016-11-18T12:24:31.742Z,10.2
2016-11-18T12:25:31.766Z,10.26
2016-11-18T12:26:31.796Z,10.18
2016-11-18T12:27:46.923Z,10.14
2016-11-18T12:28:31.828Z,10.15
2016-11-18T12:29:31.849Z,10.09
2016-11-18T12:30:31.880Z,10.15
2016-11-18T12:31:31.897Z,10.18
2016-11-18T12:32:31.913Z,10.17
2016-11-18T12:33:31.940Z,10.17
2016-11-18T12:34:31.953Z,10.23
2016-11-18T12:35:31.982Z,10.18
2016-11-18T12:36:32.000Z,10.14
2016-11-18T12:37:32.023Z,10.26
2016-11-18T12:38:32.072Z,10.22
2016-11-18T12:39:32.062Z,10.18
2016-11-18T12:40:32.087Z,10.12
2016-11-18T12:41:32.103Z,10.17
2016-11-18T12:42:32.130Z,10.22
2016-11-18T12:44:32.173Z,10.15
2016-11-18T12:45:32.193Z,10.2
2016-11-18T12:46:32.212Z,10.26
2016-11-18T12:47:47.154Z,10.18
2016-11-18T12:48:32.257Z,10.17
2016-11-18T12:49:47.195Z,10.22
2016-11-18T12:50:32.304Z,10.26
2016-11-18T12:51:32.319Z,10.25
2016-11-18T12:52:32.341Z,10.23
2016-11-18T12:53:32.360Z,10.2
2016-11-18T12:54:32.388Z,10.22
2016-11-18T12:55:32.417Z,10.3
2016-11-18T12:56:32.429Z,10.27
2016-11-18T12:57:32.453Z,10.29
2016-11-18T12:58:32.470Z,10.25
2016-11-18T13:00:32.550Z,10.33
2016-11-18T13:01:32.536Z,10.38
2016-11-18T13:02:32.554Z,10.3
2016-11-18T13:03:32.582Z,10.41
2016-11-18T13:04:32.596Z,10.38
2016-11-18T13:05:47.538Z,10.34
2016-11-18T13:06:32.646Z,10.34
2016-11-18T13:07:32.668Z,10.42
2016-11-18T13:08:47.599Z,10.36
2016-11-18T13:09:32.711Z,10.34
2016-11-18T13:10:32.733Z,10.34
2016-11-18T13:12:32.778Z,10.33
2016-11-18T13:13:32.796Z,10.34
2016-11-18T13:14:32.817Z,10.41
2016-11-18T13:16:32.859Z,10.42
2016-11-18T13:17:32.884Z,10.52
2016-11-18T13:18:32.903Z,10.47
2016-11-18T13:19:32.922Z,10.48
2016-11-18T13:20:32.948Z,10.45
2016-11-18T13:21:47.884Z,10.47
2016-11-18T13:22:32.989Z,10.44
2016-11-18T13:23:33.013Z,10.47
2016-11-18T13:24:33.034Z,10.48
2016-11-18T13:25:47.968Z,10.52
2016-11-18T13:26:33.076Z,10.56
2016-11-18T13:27:33.098Z,10.53
2016-11-18T13:28:33.119Z,10.55
2016-11-18T13:29:33.147Z,10.56
2016-11-18T13:31:33.185Z,10.47
2016-11-18T13:32:33.207Z,10.52
2016-11-18T13:33:33.229Z,10.53
2016-11-18T13:34:48.200Z,10.41
2016-11-18T13:35:33.275Z,10.4
2016-11-18T13:36:33.289Z,10.4
2016-11-18T13:37:33.313Z,10.26
2016-11-18T13:38:33.344Z,10.29
2016-11-18T13:39:33.368Z,10.25
2016-11-18T13:40:33.379Z,10.17
2016-11-18T13:41:33.406Z,10.17
2016-11-18T13:42:33.428Z,10.18
2016-11-18T13:43:33.451Z,10.2
2016-11-18T13:44:33.475Z,10.15
2016-11-18T13:45:33.491Z,10.11
2016-11-18T13:46:33.514Z,10.12
2016-11-18T13:47:33.528Z,10.14